ポートルイス の空港の天気 - METARとTAF

サー・シウサガル・ラングラーム国際空港 ( FIMP / MRU ) - モーリシャス ポートルイス
飛行場実況気象(Metar)
観測時間01/19 07:00 MUT (01/19 03:00 UTC)
風向・風速東北東 5m/s
視程6000m
天気現象周辺でしゅう雨
少しの雲 雲底高度 240m
少しの雲 雲底高度 430m
全天の4割程度の雲 雲底高度 460m
気温26℃
湿度94%
気圧1011hPa
METARFIMP 190300Z 07009KT 6000 VCSH FEW008 FEW014CB SCT015 26/25 Q1011
過去の天気等 Google飛行場航空写真 Wunderground天気予報

過去48時間のMETAR

飛行場予報(TAF)
発表時間: 1/19 03:05 MUT (1/18 23:05 UTC)
予報対象時間: 19日4時 MUT ~ 20日10時 MUT
風向・風速東北東 6m/s 瞬間風速 13m/s
視程5000m
天気現象弱いしゅう雨
少しの雲 雲底高度 240m
全天の8割程度の雲 雲底高度 460m
19日6時 MUT ~ 19日10時 MUT に一時的に
視程2000m
19日16時 MUT ~ 19日18時 MUT に徐々に
視程10km以上
全天の4割程度の雲 雲底高度 490m
TAF FIMP 182305Z 1900/2006 07012G25KT 5000 -SHRA FEW008 BKN015
TEMPO 1902/1906 2000 SHRA/TSRA FEW005 FEW012CB BKN014
BECMG 1912/1914 9999 SCT016